createdAt,value
2018-02-13T00:00:03.353Z,-1.60
2018-02-13T00:01:05.842Z,-1.60
2018-02-13T00:02:08.321Z,-1.60
2018-02-13T00:03:10.806Z,-1.60
2018-02-13T00:04:13.284Z,-1.60
2018-02-13T00:05:15.748Z,-1.60
2018-02-13T00:06:18.196Z,-1.60
2018-02-13T00:07:22.204Z,-1.60
2018-02-13T00:08:25.438Z,-1.70
2018-02-13T00:09:28.679Z,-1.70
2018-02-13T00:10:31.929Z,-1.60
2018-02-13T00:11:35.183Z,-1.60
2018-02-13T00:12:37.648Z,-1.70
2018-02-13T00:13:40.114Z,-1.60
2018-02-13T00:14:43.382Z,-1.60
2018-02-13T00:15:45.844Z,-1.60
2018-02-13T00:16:48.315Z,-1.60
2018-02-13T00:17:51.565Z,-1.60
2018-02-13T00:18:54.136Z,-1.60
2018-02-13T00:19:56.723Z,-1.60
2018-02-13T00:20:59.215Z,-1.60
2018-02-13T00:22:01.772Z,-1.60
2018-02-13T00:23:04.272Z,-1.60
2018-02-13T00:24:06.744Z,-1.50
2018-02-13T00:25:09.248Z,-1.50
2018-02-13T00:26:11.742Z,-1.50
2018-02-13T00:27:15.744Z,-1.50
2018-02-13T00:28:18.240Z,-1.50
2018-02-13T00:29:21.466Z,-1.50
2018-02-13T00:30:25.822Z,-1.50
2018-02-13T00:31:28.294Z,-1.50
2018-02-13T00:32:30.760Z,-1.50
2018-02-13T00:33:33.228Z,-1.50
2018-02-13T00:34:36.514Z,-1.50
2018-02-13T00:35:39.005Z,-1.50
2018-02-13T00:36:42.355Z,-1.50
2018-02-13T00:37:44.783Z,-1.50
2018-02-13T00:38:47.255Z,-1.50
2018-02-13T00:39:49.851Z,-1.50
2018-02-13T00:40:52.312Z,-1.50
2018-02-13T00:41:54.792Z,-1.50
2018-02-13T00:42:57.447Z,-1.50
2018-02-13T00:43:59.901Z,-1.50
2018-02-13T00:45:03.183Z,-1.50
2018-02-13T00:46:05.705Z,-1.50
2018-02-13T00:47:08.233Z,-1.50
2018-02-13T00:48:10.714Z,-1.50
2018-02-13T00:49:13.180Z,-1.50
2018-02-13T00:50:15.680Z,-1.50
2018-02-13T00:51:18.898Z,-1.50
2018-02-13T00:52:21.361Z,-1.50
2018-02-13T00:53:23.827Z,-1.50
2018-02-13T00:54:26.458Z,-1.50
2018-02-13T00:55:28.946Z,-1.50
2018-02-13T00:56:31.416Z,-1.50
2018-02-13T00:57:33.871Z,-1.50
2018-02-13T00:58:37.113Z,-1.50
2018-02-13T00:59:40.347Z,-1.50
2018-02-13T01:00:42.824Z,-1.50
2018-02-13T01:01:45.326Z,-1.50
2018-02-13T01:02:47.850Z,-1.50
2018-02-13T01:03:51.075Z,-1.50
2018-02-13T01:04:54.312Z,-1.50
2018-02-13T01:05:57.556Z,-1.50
2018-02-13T01:07:00.041Z,-1.50
2018-02-13T01:08:02.505Z,-1.50
2018-02-13T01:09:05.745Z,-1.50
2018-02-13T01:10:08.301Z,-1.50
2018-02-13T01:11:10.796Z,-1.50
2018-02-13T01:12:14.790Z,-1.50
2018-02-13T01:13:17.267Z,-1.50
2018-02-13T01:14:20.669Z,-1.50
2018-02-13T01:15:23.223Z,-1.50
2018-02-13T01:16:25.684Z,-1.50
2018-02-13T01:17:29.041Z,-1.50
2018-02-13T01:18:32.275Z,-1.50
2018-02-13T01:19:35.529Z,-1.50
2018-02-13T01:20:38.010Z,-1.50
2018-02-13T01:22:37.581Z,-1.50
2018-02-13T01:23:40.850Z,-1.50
2018-02-13T01:24:43.319Z,-1.50
2018-02-13T01:25:47.115Z,-1.50
2018-02-13T01:26:49.595Z,-1.50
2018-02-13T01:27:52.055Z,-1.40
2018-02-13T01:28:54.576Z,-1.40
2018-02-13T01:29:57.838Z,-1.40
2018-02-13T01:31:00.315Z,-1.40
2018-02-13T01:32:02.771Z,-1.40
2018-02-13T01:33:06.003Z,-1.40
2018-02-13T01:34:08.517Z,-1.40
2018-02-13T01:35:10.978Z,-1.40
2018-02-13T01:36:13.494Z,-1.40
2018-02-13T01:37:16.026Z,-1.30
2018-02-13T01:38:18.521Z,-1.30
2018-02-13T01:39:21.786Z,-1.30
2018-02-13T01:40:24.314Z,-1.30
2018-02-13T01:41:27.560Z,-1.30
2018-02-13T01:42:30.034Z,-1.30
2018-02-13T01:43:32.536Z,-1.30
2018-02-13T01:44:35.012Z,-1.30
2018-02-13T01:45:38.274Z,-1.30
2018-02-13T01:46:40.964Z,-1.30
2018-02-13T01:47:44.535Z,-1.30
2018-02-13T01:48:47.765Z,-1.30
2018-02-13T01:49:50.235Z,-1.30
2018-02-13T01:50:53.362Z,-1.30
2018-02-13T01:51:55.829Z,-1.30
2018-02-13T01:52:58.322Z,-1.30
2018-02-13T01:54:00.806Z,-1.30
2018-02-13T01:55:03.270Z,-1.30
2018-02-13T01:56:05.757Z,-1.30
2018-02-13T01:57:08.988Z,-1.30
2018-02-13T01:58:11.556Z,-1.30
2018-02-13T01:59:14.061Z,-1.30
2018-02-13T02:00:17.325Z,-1.30
2018-02-13T02:01:19.825Z,-1.40
2018-02-13T02:02:22.283Z,-1.30
2018-02-13T02:03:24.753Z,-1.40
2018-02-13T02:04:27.225Z,-1.30
2018-02-13T02:05:29.721Z,-1.40
2018-02-13T02:06:32.227Z,-1.40
2018-02-13T02:07:34.798Z,-1.40
2018-02-13T02:08:37.261Z,-1.40
2018-02-13T02:09:39.748Z,-1.40
2018-02-13T02:10:42.211Z,-1.50
2018-02-13T02:11:44.714Z,-1.50
2018-02-13T02:12:47.220Z,-1.50
2018-02-13T02:13:49.757Z,-1.50
2018-02-13T02:14:52.248Z,-1.50
2018-02-13T02:15:55.513Z,-1.60
2018-02-13T02:16:58.000Z,-1.60
2018-02-13T02:18:01.330Z,-1.60
2018-02-13T02:19:03.799Z,-1.60
2018-02-13T02:20:07.062Z,-1.60
2018-02-13T02:21:10.320Z,-1.60
2018-02-13T02:22:12.807Z,-1.60
2018-02-13T02:23:16.069Z,-1.60
2018-02-13T02:24:18.554Z,-1.50
2018-02-13T02:25:21.018Z,-1.60
2018-02-13T02:26:23.518Z,-1.60
2018-02-13T02:27:26.066Z,-1.60
2018-02-13T02:28:28.531Z,-1.60
2018-02-13T02:29:31.012Z,-1.60
2018-02-13T02:30:33.508Z,-1.60
2018-02-13T02:31:37.486Z,-1.50
2018-02-13T02:32:40.722Z,-1.50
2018-02-13T02:33:43.990Z,-1.50
2018-02-13T02:34:46.473Z,-1.50
2018-02-13T02:35:48.963Z,-1.50
2018-02-13T02:36:51.448Z,-1.50
2018-02-13T02:37:54.672Z,-1.40
2018-02-13T02:38:57.523Z,-1.40
2018-02-13T02:40:00.764Z,-1.40
2018-02-13T02:41:04.023Z,-1.40
2018-02-13T02:42:06.549Z,-1.40
2018-02-13T02:43:09.059Z,-1.40
2018-02-13T02:44:12.317Z,-1.40
2018-02-13T02:45:14.783Z,-1.40
2018-02-13T02:46:17.279Z,-1.40
2018-02-13T02:47:19.743Z,-1.40
2018-02-13T02:48:22.207Z,-1.40
2018-02-13T02:49:25.450Z,-1.40
2018-02-13T02:50:28.748Z,-1.30
2018-02-13T02:51:31.195Z,-1.30
2018-02-13T02:52:33.662Z,-1.30
2018-02-13T02:53:36.133Z,-1.30
2018-02-13T02:54:39.424Z,-1.30
2018-02-13T02:55:41.927Z,-1.30
2018-02-13T02:56:45.179Z,-1.30
2018-02-13T02:57:47.720Z,-1.30
2018-02-13T02:58:50.179Z,-1.30
2018-02-13T02:59:52.662Z,-1.30
2018-02-13T03:00:55.159Z,-1.30
2018-02-13T03:01:57.626Z,-1.20
2018-02-13T03:03:00.086Z,-1.20
2018-02-13T03:04:02.579Z,-1.20
2018-02-13T03:05:05.049Z,-1.20
2018-02-13T03:06:07.606Z,-1.20
2018-02-13T03:07:10.069Z,-1.20
2018-02-13T03:08:12.702Z,-1.20
2018-02-13T03:09:15.130Z,-1.20
2018-02-13T03:10:17.592Z,-1.20
2018-02-13T03:11:20.834Z,-1.20
2018-02-13T03:12:24.075Z,-1.10
2018-02-13T03:13:27.334Z,-1.10
2018-02-13T03:14:29.872Z,-1.10
2018-02-13T03:15:32.351Z,-1.10
2018-02-13T03:16:35.579Z,-1.00
2018-02-13T03:17:38.047Z,-1.10
2018-02-13T03:18:41.415Z,-1.00
2018-02-13T03:19:43.894Z,-1.00
2018-02-13T03:20:46.370Z,-1.00
2018-02-13T03:21:49.613Z,-1.00
2018-02-13T03:22:52.085Z,-1.00
2018-02-13T03:23:54.577Z,-1.00
2018-02-13T03:24:57.035Z,-1.00
2018-02-13T03:25:59.631Z,-1.00
2018-02-13T03:27:02.123Z,-1.00
2018-02-13T03:28:04.628Z,-1.00
2018-02-13T03:29:07.895Z,-1.00
2018-02-13T03:30:10.371Z,-1.00
2018-02-13T03:31:12.844Z,-1.00
2018-02-13T03:32:15.317Z,-1.00
2018-02-13T03:33:19.297Z,-1.00
2018-02-13T03:34:21.792Z,-1.00
2018-02-13T03:35:24.295Z,-1.00
2018-02-13T03:36:26.766Z,-0.90
2018-02-13T03:37:29.239Z,-0.90
2018-02-13T03:38:31.711Z,-0.90
2018-02-13T03:39:34.204Z,-0.90
2018-02-13T03:40:36.674Z,-0.90
2018-02-13T03:41:39.913Z,-0.90
2018-02-13T03:42:42.381Z,-0.90
2018-02-13T03:43:44.876Z,-0.80
2018-02-13T03:44:48.127Z,-0.80
2018-02-13T03:45:50.651Z,-0.80
2018-02-13T03:46:53.147Z,-0.80
2018-02-13T03:47:55.625Z,-0.80
2018-02-13T03:48:58.102Z,-0.80
2018-02-13T03:50:00.581Z,-0.80
2018-02-13T03:51:03.054Z,-0.80
2018-02-13T03:52:06.324Z,-0.80
2018-02-13T03:53:08.793Z,-0.80
2018-02-13T03:54:11.267Z,-0.80
2018-02-13T03:55:14.640Z,-0.90
2018-02-13T03:56:17.104Z,-0.80
2018-02-13T03:57:20.329Z,-0.90
2018-02-13T03:58:22.818Z,-0.90
2018-02-13T03:59:25.339Z,-0.90
2018-02-13T04:00:27.828Z,-1.00
2018-02-13T04:01:30.403Z,-1.00
2018-02-13T04:02:32.936Z,-1.00
2018-02-13T04:03:35.408Z,-1.00
2018-02-13T04:04:37.970Z,-1.10
2018-02-13T04:05:40.533Z,-1.10
2018-02-13T04:06:43.041Z,-1.10
2018-02-13T04:07:45.570Z,-1.10
2018-02-13T04:08:48.042Z,-1.10
2018-02-13T04:09:50.604Z,-1.10
2018-02-13T04:10:53.488Z,-1.20
2018-02-13T04:11:56.373Z,-1.20
2018-02-13T04:12:58.827Z,-1.20
2018-02-13T04:14:01.288Z,-1.30
2018-02-13T04:15:04.590Z,-1.30
2018-02-13T04:16:07.046Z,-1.40
2018-02-13T04:17:09.598Z,-1.40
2018-02-13T04:18:12.844Z,-1.40
2018-02-13T04:19:16.080Z,-1.40
2018-02-13T04:20:19.350Z,-1.40
2018-02-13T04:21:22.580Z,-1.40
2018-02-13T04:22:25.047Z,-1.40
2018-02-13T04:23:27.616Z,-1.40
2018-02-13T04:24:30.870Z,-1.50
2018-02-13T04:25:33.350Z,-1.50
2018-02-13T04:26:35.853Z,-1.50
2018-02-13T04:27:38.328Z,-1.50
2018-02-13T04:28:41.562Z,-1.50
2018-02-13T04:29:44.808Z,-1.60
2018-02-13T04:30:48.062Z,-1.60
2018-02-13T04:31:51.302Z,-1.60
2018-02-13T04:32:54.554Z,-1.60
2018-02-13T04:33:57.026Z,-1.70
2018-02-13T04:34:59.514Z,-1.60
2018-02-13T04:36:01.996Z,-1.60
2018-02-13T04:37:05.970Z,-1.60
2018-02-13T04:38:09.219Z,-1.70
2018-02-13T04:39:11.680Z,-1.70
2018-02-13T04:40:14.181Z,-1.70
2018-02-13T04:41:16.656Z,-1.60
2018-02-13T04:42:19.130Z,-1.60
2018-02-13T04:43:21.602Z,-1.60
2018-02-13T04:44:24.090Z,-1.60
2018-02-13T04:45:26.714Z,-1.70
2018-02-13T04:46:29.190Z,-1.70
2018-02-13T04:47:31.658Z,-1.70
2018-02-13T04:48:34.884Z,-1.70
2018-02-13T04:49:38.555Z,-1.80
2018-02-13T04:50:41.081Z,-1.80
2018-02-13T04:51:43.532Z,-1.80
2018-02-13T04:52:46.019Z,-1.80
2018-02-13T04:53:49.267Z,-1.80
2018-02-13T04:54:51.797Z,-1.80
2018-02-13T04:55:54.290Z,-1.80
2018-02-13T04:56:56.760Z,-1.80
2018-02-13T04:57:59.254Z,-1.80
2018-02-13T04:59:02.508Z,-1.80
2018-02-13T05:00:05.069Z,-1.80
2018-02-13T05:01:07.579Z,-1.90
2018-02-13T05:02:10.054Z,-1.90
2018-02-13T05:03:13.308Z,-1.90
2018-02-13T05:04:15.911Z,-1.90
2018-02-13T05:05:18.410Z,-1.90
2018-02-13T05:06:20.904Z,-2.00
2018-02-13T05:07:23.386Z,-1.90
2018-02-13T05:08:25.894Z,-1.90
2018-02-13T05:09:28.389Z,-1.90
2018-02-13T05:10:30.951Z,-1.90
2018-02-13T05:11:33.441Z,-1.90
2018-02-13T05:12:36.063Z,-1.90
2018-02-13T05:13:38.581Z,-2.00
2018-02-13T05:14:41.812Z,-2.00
2018-02-13T05:15:45.053Z,-2.00
2018-02-13T05:16:48.285Z,-2.00
2018-02-13T05:17:51.513Z,-2.00
2018-02-13T05:18:55.542Z,-2.00
2018-02-13T05:19:58.058Z,-2.10
2018-02-13T05:21:00.543Z,-2.10
2018-02-13T05:22:03.007Z,-2.10
2018-02-13T05:23:05.530Z,-2.10
2018-02-13T05:24:08.049Z,-2.10
2018-02-13T05:25:10.497Z,-2.10
2018-02-13T05:26:12.998Z,-2.10
2018-02-13T05:27:15.469Z,-2.10
2018-02-13T05:28:17.963Z,-2.10
2018-02-13T05:29:20.476Z,-2.10
2018-02-13T05:30:22.959Z,-2.10
2018-02-13T05:31:26.224Z,-2.10
2018-02-13T05:32:29.471Z,-2.10
2018-02-13T05:33:32.723Z,-2.10
2018-02-13T05:34:35.246Z,-2.10
2018-02-13T05:35:37.706Z,-2.10
2018-02-13T05:36:40.978Z,-2.10
2018-02-13T05:37:43.533Z,-2.10
2018-02-13T05:38:46.782Z,-2.10
2018-02-13T05:39:49.306Z,-2.10
2018-02-13T05:40:52.545Z,-2.10
2018-02-13T05:41:55.797Z,-2.10
2018-02-13T05:42:58.278Z,-2.10
2018-02-13T05:44:01.514Z,-2.10
2018-02-13T05:45:04.028Z,-2.10
2018-02-13T05:46:06.506Z,-2.10
2018-02-13T05:47:09.734Z,-2.20
2018-02-13T05:48:12.357Z,-2.20
2018-02-13T05:49:15.578Z,-2.20
2018-02-13T05:50:18.122Z,-2.20
2018-02-13T05:51:20.598Z,-2.20
2018-02-13T05:52:23.128Z,-2.20
2018-02-13T05:53:25.633Z,-2.20
2018-02-13T05:54:28.171Z,-2.20
2018-02-13T05:55:30.672Z,-2.20
2018-02-13T05:56:33.969Z,-2.20
2018-02-13T05:57:36.455Z,-2.20
2018-02-13T05:58:39.264Z,-2.20
2018-02-13T05:59:42.513Z,-2.20
2018-02-13T06:00:45.757Z,-2.20
2018-02-13T06:01:49.159Z,-2.20
2018-02-13T06:02:51.615Z,-2.20
2018-02-13T06:03:54.853Z,-2.20
2018-02-13T06:04:58.318Z,-2.20
2018-02-13T06:06:00.864Z,-2.20
2018-02-13T06:07:03.363Z,-2.20
2018-02-13T06:08:06.606Z,-2.20
2018-02-13T06:09:09.866Z,-2.20
2018-02-13T06:10:12.364Z,-2.20
2018-02-13T06:11:15.632Z,-2.20
2018-02-13T06:12:18.121Z,-2.20
2018-02-13T06:13:20.590Z,-2.20
2018-02-13T06:14:23.100Z,-2.20
2018-02-13T06:15:25.588Z,-2.20
2018-02-13T06:16:28.074Z,-2.20
2018-02-13T06:17:30.621Z,-2.20
2018-02-13T06:18:33.106Z,-2.20
2018-02-13T06:19:35.596Z,-2.30
2018-02-13T06:20:38.087Z,-2.30
2018-02-13T06:21:40.630Z,-2.30
2018-02-13T06:22:43.105Z,-2.30
2018-02-13T06:23:46.350Z,-2.30
2018-02-13T06:24:49.605Z,-2.30
2018-02-13T06:25:52.108Z,-2.30
2018-02-13T06:26:55.361Z,-2.30
2018-02-13T06:28:01.128Z,-2.30
2018-02-13T06:29:04.654Z,-2.40
2018-02-13T06:30:07.127Z,-2.40
2018-02-13T06:31:10.464Z,-2.40
2018-02-13T06:32:13.717Z,-2.40
2018-02-13T06:33:16.938Z,-2.40
2018-02-13T06:34:20.192Z,-2.40
2018-02-13T06:35:23.991Z,-2.30
2018-02-13T06:36:26.492Z,-2.40
2018-02-13T06:37:29.023Z,-2.30
2018-02-13T06:38:31.543Z,-2.30
2018-02-13T06:39:33.992Z,-2.30
2018-02-13T06:40:36.465Z,-2.30
2018-02-13T06:41:39.743Z,-2.30
2018-02-13T06:42:42.266Z,-2.30
2018-02-13T06:43:44.777Z,-2.40
2018-02-13T06:44:48.013Z,-2.30
2018-02-13T06:45:51.260Z,-2.30
2018-02-13T06:46:54.537Z,-2.30
2018-02-13T06:47:57.009Z,-2.30
2018-02-13T06:49:00.305Z,-2.30
2018-02-13T06:50:02.778Z,-2.30
2018-02-13T06:51:05.258Z,-2.30
2018-02-13T06:52:07.722Z,-2.30
2018-02-13T06:53:10.258Z,-2.30
2018-02-13T06:54:13.530Z,-2.30
2018-02-13T06:55:16.006Z,-2.30
2018-02-13T06:56:20.032Z,-2.20
2018-02-13T06:57:23.251Z,-2.20
2018-02-13T06:58:25.822Z,-2.20
2018-02-13T06:59:28.323Z,-2.20
2018-02-13T07:00:30.813Z,-2.20
2018-02-13T07:01:34.104Z,-2.20
2018-02-13T07:02:37.364Z,-2.10
2018-02-13T07:03:39.862Z,-2.20
2018-02-13T07:04:42.375Z,-2.10
2018-02-13T07:05:44.946Z,-2.10
2018-02-13T07:06:48.240Z,-2.10
2018-02-13T07:07:50.740Z,-2.10
2018-02-13T07:08:53.978Z,-2.10
2018-02-13T07:09:57.268Z,-2.10
2018-02-13T07:10:59.805Z,-2.10
2018-02-13T07:12:02.293Z,-2.10
2018-02-13T07:13:04.786Z,-2.00
2018-02-13T07:14:07.379Z,-2.00
2018-02-13T07:15:09.879Z,-1.90
2018-02-13T07:16:12.407Z,-1.90
2018-02-13T07:17:14.924Z,-1.90
2018-02-13T07:18:17.384Z,-1.90
2018-02-13T07:19:19.913Z,-1.90
2018-02-13T07:20:22.588Z,-1.80
2018-02-13T07:21:25.854Z,-1.80
2018-02-13T07:22:28.327Z,-1.80
2018-02-13T07:23:30.896Z,-1.80
2018-02-13T07:24:33.425Z,-1.80
2018-02-13T07:25:35.902Z,-1.70
2018-02-13T07:26:38.435Z,-1.70
2018-02-13T07:27:41.634Z,-1.70
2018-02-13T07:28:44.119Z,-1.60
2018-02-13T07:29:47.386Z,-1.60
2018-02-13T07:30:49.847Z,-1.60
2018-02-13T07:31:52.446Z,-1.60
2018-02-13T07:32:54.909Z,-1.50
2018-02-13T07:33:57.398Z,-1.50
2018-02-13T07:34:59.872Z,-1.50
2018-02-13T07:36:02.458Z,-1.50
2018-02-13T07:37:04.967Z,-1.50
2018-02-13T07:38:07.450Z,-1.50
2018-02-13T07:39:10.698Z,-1.40
2018-02-13T07:40:13.993Z,-1.40
2018-02-13T07:41:16.475Z,-1.40
2018-02-13T07:42:19.750Z,-1.30
2018-02-13T07:43:22.218Z,-1.40
2018-02-13T07:44:24.706Z,-1.30
2018-02-13T07:45:27.230Z,-1.30
2018-02-13T07:46:30.130Z,-1.30
2018-02-13T07:47:33.545Z,-1.20
2018-02-13T07:48:36.171Z,-1.20
2018-02-13T07:49:38.610Z,-1.10
2018-02-13T07:50:41.128Z,-1.10
2018-02-13T07:51:44.392Z,-1.10
2018-02-13T07:52:46.845Z,-1.10
2018-02-13T07:53:49.318Z,-1.10
2018-02-13T07:54:51.789Z,-1.10
2018-02-13T07:55:54.296Z,-1.10
2018-02-13T07:56:57.521Z,-1.00
2018-02-13T07:57:59.978Z,-1.00
2018-02-13T07:59:03.281Z,-0.90
2018-02-13T08:00:06.825Z,-0.90
2018-02-13T08:01:09.332Z,-0.90
2018-02-13T08:02:11.816Z,-0.80
2018-02-13T08:03:15.063Z,-0.70
2018-02-13T08:04:18.310Z,-0.70
2018-02-13T08:05:20.793Z,-0.70
2018-02-13T08:06:24.821Z,-0.70
2018-02-13T08:07:27.609Z,-0.70
2018-02-13T08:08:30.879Z,-0.70
2018-02-13T08:09:33.396Z,-0.70
2018-02-13T08:10:35.857Z,-0.70
2018-02-13T08:11:38.476Z,-0.70
2018-02-13T08:12:41.006Z,-0.60
2018-02-13T08:13:43.491Z,-0.60
2018-02-13T08:14:46.718Z,-0.50
2018-02-13T08:15:49.959Z,-0.50
2018-02-13T08:16:52.442Z,-0.50
2018-02-13T08:17:54.981Z,-0.50
2018-02-13T08:18:57.462Z,-0.40
2018-02-13T08:19:59.995Z,-0.40
2018-02-13T08:21:02.476Z,-0.40
2018-02-13T08:22:05.903Z,-0.40
2018-02-13T08:23:08.375Z,-0.40
2018-02-13T08:24:11.677Z,-0.40
2018-02-13T08:25:14.136Z,-0.40
2018-02-13T08:26:17.395Z,-0.30
2018-02-13T08:27:20.486Z,-0.30
2018-02-13T08:28:22.962Z,-0.30
2018-02-13T08:29:25.436Z,-0.20
2018-02-13T08:30:29.422Z,-0.20
2018-02-13T08:31:32.792Z,-0.20
2018-02-13T08:32:35.318Z,-0.20
2018-02-13T08:33:37.790Z,-0.20
2018-02-13T08:34:41.029Z,-0.20
2018-02-13T08:35:43.971Z,-0.20
2018-02-13T08:36:46.464Z,-0.10
2018-02-13T08:37:48.935Z,-0.10
2018-02-13T08:38:51.484Z,-0.10
2018-02-13T08:39:53.950Z,-0.10
2018-02-13T08:40:56.407Z,0.00
2018-02-13T08:41:59.666Z,0.10
2018-02-13T08:43:02.955Z,0.10
2018-02-13T08:44:05.438Z,0.10
2018-02-13T08:45:08.682Z,0.30
2018-02-13T08:46:11.916Z,0.50
2018-02-13T08:47:15.209Z,0.80
2018-02-13T08:48:17.669Z,0.80
2018-02-13T08:49:21.668Z,1.40
2018-02-13T08:50:24.139Z,1.40
2018-02-13T08:51:26.613Z,1.70
2018-02-13T08:52:29.128Z,1.90
2018-02-13T08:53:32.411Z,2.10
2018-02-13T08:54:34.901Z,2.00
2018-02-13T08:55:38.286Z,2.00
2018-02-13T08:56:40.745Z,1.90
2018-02-13T08:57:43.292Z,1.80
2018-02-13T08:58:46.553Z,1.60
2018-02-13T08:59:49.053Z,1.60
2018-02-13T09:00:52.297Z,1.60
2018-02-13T09:01:55.526Z,1.70
2018-02-13T09:02:58.181Z,1.60
2018-02-13T09:04:00.715Z,1.70
2018-02-13T09:05:03.157Z,1.80
2018-02-13T09:06:05.645Z,1.90
2018-02-13T09:07:08.909Z,2.40
2018-02-13T09:08:11.434Z,2.30
2018-02-13T09:09:13.965Z,2.40
2018-02-13T09:10:16.441Z,2.40
2018-02-13T09:11:18.896Z,2.40
2018-02-13T09:12:22.120Z,2.30
2018-02-13T09:13:25.369Z,2.20
2018-02-13T09:14:28.605Z,2.20
2018-02-13T09:15:31.079Z,2.10
2018-02-13T09:16:33.677Z,2.10
2018-02-13T09:17:36.901Z,2.00
2018-02-13T09:18:40.156Z,1.90
2018-02-13T09:19:43.395Z,1.90
2018-02-13T09:20:47.450Z,1.90
2018-02-13T09:21:50.729Z,1.80
2018-02-13T09:22:53.204Z,1.80
2018-02-13T09:23:55.730Z,1.80
2018-02-13T09:24:59.097Z,1.70
2018-02-13T09:26:02.333Z,1.70
2018-02-13T09:27:05.591Z,1.70
2018-02-13T09:28:08.073Z,1.70
2018-02-13T09:29:11.315Z,1.80
2018-02-13T09:30:13.816Z,1.70
2018-02-13T09:31:16.284Z,1.80
2018-02-13T09:32:19.538Z,1.80
2018-02-13T09:33:22.053Z,1.80
2018-02-13T09:34:24.514Z,1.80
2018-02-13T09:35:27.030Z,1.90
2018-02-13T09:36:29.565Z,1.90
2018-02-13T09:37:32.054Z,1.90
2018-02-13T09:38:34.537Z,1.90
2018-02-13T09:39:37.004Z,1.90
2018-02-13T09:40:40.264Z,2.00
2018-02-13T09:41:43.515Z,2.10
2018-02-13T09:42:46.009Z,2.00
2018-02-13T09:43:48.578Z,2.10
2018-02-13T09:44:51.078Z,2.10
2018-02-13T09:45:54.496Z,2.10
2018-02-13T09:46:56.968Z,2.10
2018-02-13T09:47:59.442Z,2.10
2018-02-13T09:49:01.907Z,2.20
2018-02-13T09:50:05.163Z,2.20
2018-02-13T09:51:07.657Z,2.20
2018-02-13T09:52:10.918Z,2.30
2018-02-13T09:53:14.221Z,2.20
2018-02-13T09:54:16.666Z,2.30
2018-02-13T09:55:19.903Z,2.40
2018-02-13T09:56:22.442Z,2.30
2018-02-13T09:57:25.709Z,2.40
2018-02-13T09:58:28.180Z,2.40
2018-02-13T09:59:30.692Z,2.40
2018-02-13T10:00:33.159Z,2.50
2018-02-13T10:01:36.425Z,2.50
2018-02-13T10:02:39.001Z,2.40
2018-02-13T10:03:43.104Z,2.50
2018-02-13T10:04:45.698Z,2.50
2018-02-13T10:05:48.849Z,2.50
2018-02-13T10:06:52.108Z,2.50
2018-02-13T10:07:55.337Z,2.50
2018-02-13T10:08:58.598Z,2.60
2018-02-13T10:10:01.073Z,2.50
2018-02-13T10:11:03.533Z,2.60
2018-02-13T10:12:06.761Z,2.70
2018-02-13T10:13:09.330Z,2.70
2018-02-13T10:14:11.800Z,2.80
2018-02-13T10:15:14.354Z,2.80
2018-02-13T10:16:17.594Z,2.90
2018-02-13T10:17:20.818Z,2.90
2018-02-13T10:18:23.284Z,2.90
2018-02-13T10:19:25.783Z,3.00
2018-02-13T10:20:29.356Z,3.00
2018-02-13T10:21:31.840Z,3.00
2018-02-13T10:22:34.305Z,3.00
2018-02-13T10:23:37.542Z,3.10
2018-02-13T10:24:40.791Z,3.00
2018-02-13T10:25:43.271Z,3.00
2018-02-13T10:26:45.728Z,3.00
2018-02-13T10:27:48.954Z,3.00
2018-02-13T10:28:51.438Z,3.00
2018-02-13T10:29:54.008Z,3.00
2018-02-13T10:30:57.236Z,3.00
2018-02-13T10:31:59.704Z,3.00
2018-02-13T10:33:02.169Z,3.00
2018-02-13T10:34:04.655Z,3.00
2018-02-13T10:35:07.181Z,3.00
2018-02-13T10:36:09.646Z,3.10
2018-02-13T10:37:12.142Z,3.10
2018-02-13T10:38:14.592Z,3.20
2018-02-13T10:39:17.050Z,3.20
2018-02-13T10:40:20.425Z,3.20
2018-02-13T10:41:23.812Z,3.20
2018-02-13T10:42:26.266Z,3.20
2018-02-13T10:43:29.520Z,3.30
2018-02-13T10:44:32.751Z,3.30
2018-02-13T10:45:35.993Z,3.40
2018-02-13T10:46:39.215Z,3.30
2018-02-13T10:47:41.676Z,3.30
2018-02-13T10:48:44.929Z,3.40
2018-02-13T10:49:48.100Z,3.40
2018-02-13T10:50:50.596Z,3.40
2018-02-13T10:51:53.078Z,3.40
2018-02-13T10:52:55.634Z,3.50
2018-02-13T10:53:58.886Z,3.50
2018-02-13T10:55:01.698Z,3.50
2018-02-13T10:56:04.457Z,3.50
2018-02-13T10:57:07.002Z,3.50
2018-02-13T10:58:09.493Z,3.50
2018-02-13T10:59:12.025Z,3.50
2018-02-13T11:00:14.549Z,3.50
2018-02-13T11:01:22.778Z,3.50
2018-02-13T11:02:26.003Z,3.60
2018-02-13T11:03:28.470Z,3.60
2018-02-13T11:04:30.989Z,3.70
2018-02-13T11:05:34.222Z,3.70
2018-02-13T11:06:37.456Z,3.70
2018-02-13T11:07:39.946Z,3.70
2018-02-13T11:08:42.433Z,3.70
2018-02-13T11:09:44.957Z,3.70
2018-02-13T11:10:47.506Z,3.70
2018-02-13T11:11:50.002Z,3.70
2018-02-13T11:12:53.290Z,3.70
2018-02-13T11:13:56.571Z,3.70
2018-02-13T11:14:59.823Z,3.60
2018-02-13T11:16:03.093Z,3.70
2018-02-13T11:17:05.578Z,3.70
2018-02-13T11:18:08.878Z,3.80
2018-02-13T11:19:11.554Z,3.80
2018-02-13T11:20:14.834Z,3.80
2018-02-13T11:21:17.326Z,3.80
2018-02-13T11:22:19.816Z,3.80
2018-02-13T11:23:22.291Z,3.80
2018-02-13T11:24:25.521Z,3.90
2018-02-13T11:25:28.781Z,3.90
2018-02-13T11:26:32.052Z,3.90
2018-02-13T11:27:34.587Z,3.90
2018-02-13T11:28:37.030Z,4.00
2018-02-13T11:29:39.482Z,4.00
2018-02-13T11:30:42.721Z,4.00
2018-02-13T11:31:45.991Z,4.10
2018-02-13T11:32:48.467Z,4.10
2018-02-13T11:33:50.913Z,4.10
2018-02-13T11:34:54.158Z,4.20
2018-02-13T11:35:57.392Z,4.20
2018-02-13T11:36:59.911Z,4.20
2018-02-13T11:38:02.466Z,4.20
2018-02-13T11:39:04.925Z,4.20
2018-02-13T11:40:07.377Z,4.20
2018-02-13T11:41:09.845Z,4.10
2018-02-13T11:42:12.376Z,4.10
2018-02-13T11:43:14.847Z,4.10
2018-02-13T11:44:17.363Z,4.10
2018-02-13T11:45:19.834Z,4.10
2018-02-13T11:46:23.217Z,4.20
2018-02-13T11:47:25.726Z,4.10
2018-02-13T11:48:28.202Z,4.20
2018-02-13T11:49:30.683Z,4.20
2018-02-13T11:50:33.723Z,4.20
2018-02-13T11:51:36.251Z,4.20
2018-02-13T11:52:38.762Z,4.30
2018-02-13T11:53:41.335Z,4.30
2018-02-13T11:54:45.007Z,4.30
2018-02-13T11:55:48.252Z,4.40
2018-02-13T11:56:50.735Z,4.40
2018-02-13T11:57:53.227Z,4.40
2018-02-13T11:58:55.749Z,4.40
2018-02-13T11:59:58.209Z,4.40
2018-02-13T12:01:00.677Z,4.50
2018-02-13T12:02:03.934Z,4.50
2018-02-13T12:03:07.174Z,4.40
2018-02-13T12:04:10.442Z,4.40
2018-02-13T12:05:12.919Z,4.40
2018-02-13T12:06:15.386Z,4.50
2018-02-13T12:07:17.843Z,4.50
2018-02-13T12:08:20.441Z,4.50
2018-02-13T12:09:22.918Z,4.50
2018-02-13T12:10:25.428Z,4.50
2018-02-13T12:11:28.997Z,4.50
2018-02-13T12:12:31.477Z,4.50
2018-02-13T12:13:33.942Z,4.50
2018-02-13T12:14:36.406Z,4.40
2018-02-13T12:15:39.774Z,4.30
2018-02-13T12:16:42.234Z,4.40
2018-02-13T12:17:44.820Z,4.30
2018-02-13T12:18:47.318Z,4.30
2018-02-13T12:19:50.562Z,4.40
2018-02-13T12:20:53.815Z,4.40
2018-02-13T12:21:56.371Z,4.30
2018-02-13T12:22:58.888Z,4.30
2018-02-13T12:24:01.403Z,4.30
2018-02-13T12:25:03.871Z,4.30
2018-02-13T12:26:06.351Z,4.30
2018-02-13T12:27:08.856Z,4.40
2018-02-13T12:28:12.265Z,4.50
2018-02-13T12:29:14.744Z,4.40
2018-02-13T12:30:17.190Z,4.50
2018-02-13T12:31:19.748Z,4.60
2018-02-13T12:32:22.312Z,4.60
2018-02-13T12:33:25.538Z,4.70
2018-02-13T12:34:28.802Z,4.70
2018-02-13T12:35:31.314Z,4.70
2018-02-13T12:36:34.555Z,4.80
2018-02-13T12:37:37.921Z,4.80
2018-02-13T12:38:40.408Z,4.80
2018-02-13T12:39:42.965Z,4.80
2018-02-13T12:40:46.191Z,4.70
2018-02-13T12:41:49.446Z,4.80
2018-02-13T12:42:51.902Z,4.80
2018-02-13T12:43:54.405Z,4.80
2018-02-13T12:44:56.922Z,4.80
2018-02-13T12:45:59.413Z,4.80
2018-02-13T12:47:01.870Z,4.80
2018-02-13T12:48:04.337Z,4.80
2018-02-13T12:49:06.825Z,4.90
2018-02-13T12:50:09.330Z,4.90
2018-02-13T12:51:12.572Z,5.00
2018-02-13T12:52:15.830Z,5.00
2018-02-13T12:53:18.360Z,5.00
2018-02-13T12:54:20.860Z,5.10
2018-02-13T12:55:23.309Z,5.10
2018-02-13T12:56:25.758Z,5.10
2018-02-13T12:57:28.228Z,5.20
2018-02-13T12:58:30.713Z,5.20
2018-02-13T12:59:33.271Z,5.20
2018-02-13T13:00:35.744Z,5.20
2018-02-13T13:01:38.315Z,5.20
2018-02-13T13:02:40.778Z,5.20
2018-02-13T13:03:44.062Z,5.10
2018-02-13T13:04:46.587Z,5.10
2018-02-13T13:05:49.046Z,5.10
2018-02-13T13:06:51.521Z,5.10
2018-02-13T13:07:53.990Z,5.10
2018-02-13T13:08:56.480Z,5.00
2018-02-13T13:09:58.961Z,5.00
2018-02-13T13:11:02.260Z,4.90
2018-02-13T13:12:04.734Z,4.90
2018-02-13T13:13:07.970Z,4.80
2018-02-13T13:14:11.259Z,4.80
2018-02-13T13:15:13.753Z,4.80
2018-02-13T13:16:16.281Z,4.80
2018-02-13T13:17:18.735Z,4.80
2018-02-13T13:18:21.194Z,4.80
2018-02-13T13:19:23.673Z,4.80
2018-02-13T13:20:26.174Z,4.80
2018-02-13T13:21:29.473Z,4.70
2018-02-13T13:22:32.730Z,4.70
2018-02-13T13:23:35.293Z,4.70
2018-02-13T13:24:39.180Z,4.60
2018-02-13T13:25:41.678Z,4.50
2018-02-13T13:26:44.221Z,4.50
2018-02-13T13:27:46.688Z,4.50
2018-02-13T13:28:50.053Z,4.50
2018-02-13T13:29:54.569Z,4.50
2018-02-13T13:30:57.042Z,4.50
2018-02-13T13:31:59.533Z,4.60
2018-02-13T13:33:02.038Z,4.60
2018-02-13T13:34:04.501Z,4.60
2018-02-13T13:35:07.059Z,4.60
2018-02-13T13:36:10.310Z,4.80
2018-02-13T13:37:12.833Z,4.80
2018-02-13T13:38:15.494Z,4.80